EYKA/KUN METAR and TAF weather

Enter ICAO airport designator
Station Type Date Time Source
EYKA METAR 2020/01/20 12:50 UTC NOAA

EYKA 201250Z 25013KT 9999 OVC019 04/00 Q1036 R08/190095


Station Type Date Time Source
EYKA Decoded METAR 2020/01/20 12:50 UTC NOAA

Kaunas, Lithuania (EYKA) 54-54N 023-55-12E
Jan 20, 2020 - 07:50 AM EST / 2020.01.20 1250 UTC
Wind: from the WSW (250 degrees) at 15 MPH (13 KT):0
Visibility: greater than 7 mile(s):0
Sky conditions: overcast
Temperature: 39 F (4 C)
Dew Point: 32 F (0 C)
Relative Humidity: 75%
Pressure (altimeter): 30.59 in. Hg (1036 hPa)
ob: EYKA 201250Z 25013KT 9999 OVC019 04/00 Q1036 R08/190095
cycle: 13

Station Type Date Time Source
EYKA TAF 2020/01/20 12:03 UTC NOAA

TAF EYKA 201100Z 2012/2112 26016G26KT 9000 OVC015
BECMG 2022/2024 5000 BR OVC010
BECMG 2102/2104 3000 OVC005
TEMPO 2104/2112 0800 DZ FG OVC002

Example: see airport list